Time;durP1;ratioP1;P1;durP2;ratioP2;P2;SDS_P1;SDS_P2;PMS_P1;PMS_P2;Temp;Humidity;BMP_temperature;BMP_pressure;BME280_temperature;BME280_humidity;BME280_pressure;Samples;Min_cycle;Max_cycle;Signal;HPM_P1;HPM_P2
2021/04/02 00:00:20;;;;;;;9.25;7.50;;;;;;;;;;4969148;28;20040;-65
2021/04/02 00:02:45;;;;;;;8.70;7.00;;;;;;;;;;4968563;28;20077;-65
2021/04/02 00:05:13;;;;;;;9.57;7.75;;;;;;;;;;4925353;28;20402;-65
2021/04/02 00:07:38;;;;;;;8.30;6.45;;;;;;;;;;4965719;28;20117;-65
2021/04/02 00:10:07;;;;;;;9.40;7.85;;;;;;;;;;4968213;28;20046;-65
2021/04/02 00:12:33;;;;;;;10.15;7.82;;;;;;;;;;4952282;28;20608;-65
2021/04/02 00:14:58;;;;;;;9.90;8.20;;;;;;;;;;4948616;28;20043;-65
2021/04/02 00:17:24;;;;;;;9.38;7.63;;;;;;;;;;4966886;28;20038;-65
2021/04/02 00:19:49;;;;;;;9.65;7.72;;;;;;;;;;4968651;28;20027;-65
2021/04/02 00:22:15;;;;;;;10.38;8.25;;;;;;;;;;4968118;28;20058;-65
2021/04/02 00:24:40;;;;;;;9.52;7.63;;;;;;;;;;4971194;28;20505;-65
2021/04/02 00:27:07;;;;;;;11.15;8.80;;;;;;;;;;4968894;28;20042;-65
2021/04/02 00:29:32;;;;;;;9.52;7.68;;;;;;;;;;4951222;28;20043;-65
2021/04/02 00:31:57;;;;;;;9.10;7.57;;;;;;;;;;4970636;28;20043;-65
2021/04/02 00:34:23;;;;;;;8.85;6.82;;;;;;;;;;4971294;28;20441;-64
2021/04/02 00:36:48;;;;;;;10.05;8.65;;;;;;;;;;4939370;28;20039;-65
2021/04/02 00:39:14;;;;;;;10.38;8.23;;;;;;;;;;4969547;28;20571;-65
2021/04/02 00:41:39;;;;;;;9.68;7.60;;;;;;;;;;4967865;28;20483;-65
2021/04/02 00:44:05;;;;;;;9.80;8.20;;;;;;;;;;4952675;28;20042;-65
2021/04/02 00:46:32;;;;;;;8.68;7.20;;;;;;;;;;4951682;28;20578;-65
2021/04/02 00:48:57;;;;;;;8.77;7.35;;;;;;;;;;4965462;28;20035;-65
2021/04/02 00:51:24;;;;;;;9.30;7.47;;;;;;;;;;4967656;28;20039;-65
2021/04/02 00:53:50;;;;;;;11.23;7.70;;;;;;;;;;4969062;28;20081;-64
2021/04/02 00:56:16;;;;;;;8.88;7.35;;;;;;;;;;4968919;28;21034;-65
2021/04/02 00:58:42;;;;;;;9.25;6.85;;;;;;;;;;4970259;28;20625;-65
2021/04/02 01:01:08;;;;;;;10.13;7.95;;;;;;;;;;4968227;28;20078;-65
2021/04/02 01:03:34;;;;;;;8.65;6.72;;;;;;;;;;4938384;28;20031;-65
2021/04/02 01:06:04;;;;;;;8.05;6.80;;;;;;;;;;4951589;28;20035;-66
2021/04/02 01:08:32;;;;;;;8.55;7.25;;;;;;;;;;4951359;28;20035;-66
2021/04/02 01:11:03;;;;;;;10.63;8.77;;;;;;;;;;4956410;28;20517;-66
2021/04/02 01:13:40;;;;;;;11.60;9.77;;;;;;;;;;4967302;28;20623;-66
2021/04/02 01:16:11;;;;;;;11.55;10.35;;;;;;;;;;4951132;28;20031;-64
2021/04/02 01:19:02;;;;;;;18.03;16.10;;;;;;;;;;4941122;28;20740;-64
2021/04/02 01:21:51;;;;;;;14.70;13.20;;;;;;;;;;4969018;28;20298;-64
2021/04/02 01:24:24;;;;;;;13.98;12.55;;;;;;;;;;4952760;28;20043;-64
2021/04/02 01:27:19;;;;;;;12.77;11.48;;;;;;;;;;4937494;28;20043;-64
2021/04/02 01:29:55;;;;;;;12.95;11.05;;;;;;;;;;4972151;28;20031;-64
2021/04/02 01:32:28;;;;;;;15.40;13.80;;;;;;;;;;4939423;28;20043;-64
2021/04/02 01:35:04;;;;;;;13.60;12.20;;;;;;;;;;4972815;28;21237;-64
2021/04/02 01:37:49;;;;;;;9.95;7.95;;;;;;;;;;4956784;28;20031;-64
2021/04/02 01:40:15;;;;;;;9.23;8.00;;;;;;;;;;4959528;28;20888;-64
2021/04/02 01:42:41;;;;;;;9.48;7.95;;;;;;;;;;4944944;28;20186;-64
2021/04/02 01:45:09;;;;;;;11.23;10.05;;;;;;;;;;4959237;28;20049;-64
2021/04/02 01:47:35;;;;;;;11.00;8.95;;;;;;;;;;4927331;28;20043;-64
2021/04/02 01:50:04;;;;;;;11.15;9.77;;;;;;;;;;4940127;28;20122;-64
2021/04/02 01:52:31;;;;;;;11.55;9.95;;;;;;;;;;4955082;28;20050;-64
2021/04/02 01:54:57;;;;;;;11.98;10.73;;;;;;;;;;4972505;28;20038;-64
2021/04/02 01:57:22;;;;;;;12.82;11.50;;;;;;;;;;4955455;28;20035;-64
2021/04/02 01:59:51;;;;;;;12.45;11.23;;;;;;;;;;4940008;28;20039;-64
2021/04/02 02:02:18;;;;;;;11.20;10.02;;;;;;;;;;4942664;28;20043;-64
2021/04/02 02:04:45;;;;;;;14.65;13.15;;;;;;;;;;4945433;28;20039;-63
2021/04/02 02:07:12;;;;;;;13.77;12.30;;;;;;;;;;4954273;28;20030;-64
2021/04/02 02:09:47;;;;;;;13.82;12.38;;;;;;;;;;4954688;28;20059;-64
2021/04/02 02:12:39;;;;;;;14.57;13.10;;;;;;;;;;4957961;28;20520;-64
2021/04/02 02:15:16;;;;;;;15.48;13.88;;;;;;;;;;4958043;28;20122;-64
2021/04/02 02:17:44;;;;;;;14.70;13.20;;;;;;;;;;4957649;28;20489;-64
2021/04/02 02:20:11;;;;;;;16.90;15.30;;;;;;;;;;4941089;28;20034;-64
2021/04/02 02:22:38;;;;;;;16.48;14.88;;;;;;;;;;4942853;28;20086;-64
2021/04/02 02:25:11;;;;;;;17.70;15.90;;;;;;;;;;4958172;28;20042;-64
2021/04/02 02:27:41;;;;;;;18.13;16.33;;;;;;;;;;4956618;28;20027;-64
2021/04/02 02:30:18;;;;;;;18.98;17.17;;;;;;;;;;4925236;28;20429;-64
2021/04/02 02:32:48;;;;;;;20.60;18.60;;;;;;;;;;4972284;28;20044;-64
2021/04/02 02:35:14;;;;;;;19.40;17.50;;;;;;;;;;4942399;28;20417;-64
2021/04/02 02:37:42;;;;;;;23.67;21.38;;;;;;;;;;4965729;28;20031;-64
2021/04/02 02:40:14;;;;;;;24.77;22.38;;;;;;;;;;4953534;28;20585;-64
2021/04/02 02:42:41;;;;;;;22.48;20.27;;;;;;;;;;4955754;28;20063;-64
2021/04/02 02:45:08;;;;;;;24.85;22.48;;;;;;;;;;4954372;28;20094;-64
2021/04/02 02:47:34;;;;;;;27.45;24.85;;;;;;;;;;4967747;28;20039;-64
2021/04/02 02:50:05;;;;;;;27.83;25.15;;;;;;;;;;4927780;28;20040;-64
2021/04/02 02:52:32;;;;;;;22.02;19.90;;;;;;;;;;4933073;28;20525;-64
2021/04/02 02:54:58;;;;;;;20.65;18.65;;;;;;;;;;4955047;28;20524;-64
2021/04/02 02:57:24;;;;;;;21.85;19.75;;;;;;;;;;4923449;28;20046;-64
2021/04/02 02:59:50;;;;;;;21.52;19.42;;;;;;;;;;4941543;28;20118;-64
2021/04/02 03:02:17;;;;;;;26.27;23.77;;;;;;;;;;4923011;28;20082;-66
2021/04/02 03:04:43;;;;;;;25.77;23.27;;;;;;;;;;4955170;28;20039;-64
2021/04/02 03:07:08;;;;;;;23.35;21.15;;;;;;;;;;4924448;28;20031;-64
2021/04/02 03:09:39;;;;;;;21.23;19.13;;;;;;;;;;4944901;28;20091;-64
2021/04/02 03:12:05;;;;;;;24.42;22.13;;;;;;;;;;4926505;28;20039;-64
2021/04/02 03:14:33;;;;;;;29.60;26.85;;;;;;;;;;4942291;28;20036;-64
2021/04/02 03:17:04;;;;;;;30.60;27.67;;;;;;;;;;4938254;28;20035;-64
2021/04/02 03:19:32;;;;;;;30.08;27.27;;;;;;;;;;4955131;28;20035;-64
2021/04/02 03:22:06;;;;;;;22.15;19.90;;;;;;;;;;4927440;28;20089;-64
2021/04/02 03:24:38;;;;;;;20.08;18.08;;;;;;;;;;4941660;28;20039;-63
2021/04/02 03:27:06;;;;;;;22.58;20.38;;;;;;;;;;4923337;28;20042;-64
2021/04/02 03:29:32;;;;;;;22.10;19.90;;;;;;;;;;4936495;28;20038;-64
2021/04/02 03:32:04;;;;;;;25.10;22.70;;;;;;;;;;4954510;28;20047;-64
2021/04/02 03:34:30;;;;;;;25.63;23.10;;;;;;;;;;4953449;28;20232;-64
2021/04/02 03:36:56;;;;;;;27.42;24.92;;;;;;;;;;4971756;28;20035;-64
2021/04/02 03:39:29;;;;;;;28.33;25.63;;;;;;;;;;4938203;28;20039;-64
2021/04/02 03:41:59;;;;;;;21.88;19.77;;;;;;;;;;4954127;28;20066;-64
2021/04/02 03:44:31;;;;;;;27.92;25.30;;;;;;;;;;4953014;28;20470;-64
2021/04/02 03:46:59;;;;;;;30.05;27.20;;;;;;;;;;4938390;28;20035;-64
2021/04/02 03:49:28;;;;;;;26.80;24.30;;;;;;;;;;4922477;28;20035;-64
2021/04/02 03:51:58;;;;;;;31.08;28.17;;;;;;;;;;4971210;28;20048;-64
2021/04/02 03:54:25;;;;;;;29.75;26.95;;;;;;;;;;4952236;28;20069;-64
2021/04/02 03:56:53;;;;;;;21.92;19.75;;;;;;;;;;4955264;28;20036;-64
2021/04/02 03:59:23;;;;;;;25.27;22.77;;;;;;;;;;4954030;28;20070;-64
2021/04/02 04:01:53;;;;;;;30.25;27.40;;;;;;;;;;4940218;28;20134;-64
2021/04/02 04:04:23;;;;;;;32.33;29.33;;;;;;;;;;4966452;28;20027;-64
2021/04/02 04:06:51;;;;;;;31.40;28.40;;;;;;;;;;4938425;28;20577;-64
2021/04/02 04:09:20;;;;;;;32.20;29.23;;;;;;;;;;4954576;28;20485;-64
2021/04/02 04:11:50;;;;;;;30.42;27.58;;;;;;;;;;4924780;28;20051;-64
2021/04/02 04:14:22;;;;;;;34.80;31.50;;;;;;;;;;4952816;28;20075;-64
2021/04/02 04:16:50;;;;;;;33.38;30.17;;;;;;;;;;4953613;28;20651;-64
2021/04/02 04:19:16;;;;;;;22.85;20.70;;;;;;;;;;4943130;28;20034;-64
2021/04/02 04:21:46;;;;;;;26.17;23.67;;;;;;;;;;4926562;28;20600;-64
2021/04/02 04:24:21;;;;;;;28.40;25.80;;;;;;;;;;4940619;28;20039;-64
2021/04/02 04:26:47;;;;;;;23.75;21.45;;;;;;;;;;4969921;28;20031;-64
2021/04/02 04:29:27;;;;;;;23.67;21.38;;;;;;;;;;4952527;28;20658;-64
2021/04/02 04:31:53;;;;;;;26.55;24.05;;;;;;;;;;4923810;28;20043;-64
2021/04/02 04:34:18;;;;;;;27.88;25.17;;;;;;;;;;4952687;28;20038;-64
2021/04/02 04:36:44;;;;;;;24.00;21.60;;;;;;;;;;4936797;28;20053;-63
2021/04/02 04:39:09;;;;;;;31.38;28.38;;;;;;;;;;4938401;28;20031;-63
2021/04/02 04:41:35;;;;;;;26.83;24.27;;;;;;;;;;4935632;28;20039;-63
2021/04/02 04:44:01;;;;;;;38.58;34.88;;;;;;;;;;4954255;28;20043;-65
2021/04/02 04:46:27;;;;;;;36.95;33.55;;;;;;;;;;4949882;28;20149;-65
2021/04/02 04:48:52;;;;;;;39.67;35.97;;;;;;;;;;4948592;28;20861;-65
2021/04/02 04:51:19;;;;;;;38.88;35.22;;;;;;;;;;4968291;28;20035;-65
2021/04/02 04:53:45;;;;;;;44.97;40.83;;;;;;;;;;4935689;28;20041;-65
2021/04/02 04:56:11;;;;;;;36.63;33.13;;;;;;;;;;4914982;28;20039;-65
2021/04/02 04:58:37;;;;;;;38.13;34.53;;;;;;;;;;4936912;28;20773;-65
2021/04/02 05:01:05;;;;;;;40.47;36.60;;;;;;;;;;4939443;28;20038;-65
2021/04/02 05:03:32;;;;;;;38.47;34.88;;;;;;;;;;4952178;28;20038;-65
2021/04/02 05:05:58;;;;;;;35.38;31.88;;;;;;;;;;4943494;28;20039;-65
2021/04/02 05:08:46;;;;;;;31.40;28.48;;;;;;;;;;4938583;28;20046;-65
2021/04/02 05:11:12;;;;;;;29.70;26.90;;;;;;;;;;4954924;28;20050;-65
2021/04/02 05:13:37;;;;;;;32.97;29.88;;;;;;;;;;4954930;28;20040;-65
2021/04/02 05:16:04;;;;;;;32.42;29.33;;;;;;;;;;4939529;28;20039;-65
2021/04/02 05:18:30;;;;;;;31.70;28.73;;;;;;;;;;4955857;28;20032;-65
2021/04/02 05:20:55;;;;;;;30.33;27.42;;;;;;;;;;4939423;28;20031;-65
2021/04/02 05:23:21;;;;;;;29.75;26.92;;;;;;;;;;4972082;28;20390;-65
2021/04/02 05:25:46;;;;;;;29.98;27.10;;;;;;;;;;4938132;28;20027;-65
2021/04/02 05:28:12;;;;;;;28.17;25.55;;;;;;;;;;4972826;28;20031;-65
2021/04/02 05:30:38;;;;;;;28.77;26.05;;;;;;;;;;4968769;28;20032;-65
2021/04/02 05:33:03;;;;;;;31.98;28.98;;;;;;;;;;4972670;28;20047;-65
2021/04/02 05:35:29;;;;;;;29.95;27.10;;;;;;;;;;4971693;28;20046;-65
2021/04/02 05:37:54;;;;;;;26.73;24.13;;;;;;;;;;4971117;28;20517;-65
2021/04/02 05:40:20;;;;;;;22.30;20.10;;;;;;;;;;4972778;28;20031;-65
2021/04/02 05:42:59;;;;;;;26.58;23.98;;;;;;;;;;4959663;28;20875;-65
2021/04/02 05:45:25;;;;;;;26.38;23.88;;;;;;;;;;4954482;28;20027;-65
2021/04/02 05:47:51;;;;;;;21.27;19.23;;;;;;;;;;4955354;28;20039;-65
2021/04/02 05:50:18;;;;;;;23.73;21.35;;;;;;;;;;4973350;28;20481;-65
2021/04/02 05:52:44;;;;;;;25.67;23.08;;;;;;;;;;4970210;28;20825;-65
2021/04/02 05:55:10;;;;;;;29.40;26.60;;;;;;;;;;4955177;28;20047;-65
2021/04/02 05:57:35;;;;;;;34.75;31.42;;;;;;;;;;4954511;28;20094;-65
2021/04/02 06:00:01;;;;;;;39.33;35.55;;;;;;;;;;4953116;28;20035;-65
2021/04/02 06:02:26;;;;;;;36.83;33.35;;;;;;;;;;4971862;28;20062;-65
2021/04/02 06:04:51;;;;;;;33.55;30.35;;;;;;;;;;4954739;28;20393;-65
2021/04/02 06:07:17;;;;;;;28.10;25.42;;;;;;;;;;4953685;28;20500;-65
2021/04/02 06:09:42;;;;;;;34.95;31.55;;;;;;;;;;4970345;28;20045;-65
2021/04/02 06:12:10;;;;;;;39.67;35.88;;;;;;;;;;4971746;28;20487;-65
2021/04/02 06:14:35;;;;;;;35.60;32.15;;;;;;;;;;4942195;28;20039;-65
2021/04/02 06:17:01;;;;;;;38.88;35.17;;;;;;;;;;4953398;28;20066;-65
2021/04/02 06:19:26;;;;;;;37.50;34.00;;;;;;;;;;4971871;28;20035;-65
2021/04/02 06:21:56;;;;;;;39.83;36.03;;;;;;;;;;4968825;28;20043;-65
2021/04/02 06:24:43;;;;;;;39.85;36.00;;;;;;;;;;4952937;28;20024;-65
2021/04/02 06:27:10;;;;;;;34.97;31.70;;;;;;;;;;4942564;28;20034;-65
2021/04/02 06:29:37;;;;;;;41.80;37.90;;;;;;;;;;4955412;28;20084;-65
2021/04/02 06:32:03;;;;;;;38.67;34.97;;;;;;;;;;4954196;28;20122;-65
2021/04/02 06:34:28;;;;;;;39.38;35.67;;;;;;;;;;4940934;28;20730;-66
2021/04/02 06:37:01;;;;;;;36.42;33.03;;;;;;;;;;4970157;28;20413;-64
2021/04/02 06:39:31;;;;;;;12.07;10.40;;;;;;;;;;4957101;28;20043;-64
2021/04/02 06:41:58;;;;;;;9.63;7.85;;;;;;;;;;4971383;28;20043;-64
2021/04/02 06:44:24;;;;;;;9.75;8.05;;;;;;;;;;4970559;28;20036;-64
2021/04/02 06:46:50;;;;;;;8.88;7.93;;;;;;;;;;4954974;28;20028;-64
2021/04/02 06:49:17;;;;;;;10.13;8.48;;;;;;;;;;4955306;28;20031;-65
2021/04/02 06:51:47;;;;;;;10.25;8.75;;;;;;;;;;4953718;28;20079;-65
2021/04/02 06:54:14;;;;;;;10.63;9.52;;;;;;;;;;4940436;28;20155;-65
2021/04/02 06:56:42;;;;;;;11.18;8.82;;;;;;;;;;4951491;28;20096;-65
2021/04/02 06:59:08;;;;;;;11.30;9.07;;;;;;;;;;4953365;28;20513;-65
2021/04/02 07:01:33;;;;;;;10.25;8.85;;;;;;;;;;4953560;28;20039;-65
2021/04/02 07:03:59;;;;;;;9.25;7.95;;;;;;;;;;4954280;28;20098;-65
2021/04/02 07:06:25;;;;;;;10.45;8.60;;;;;;;;;;4954083;28;20039;-65
2021/04/02 07:08:51;;;;;;;9.40;7.70;;;;;;;;;;4969834;28;20049;-65
2021/04/02 07:11:16;;;;;;;9.10;7.80;;;;;;;;;;4955831;28;20512;-65
2021/04/02 07:13:48;;;;;;;9.48;7.75;;;;;;;;;;4934743;28;20494;-66
2021/04/02 07:16:15;;;;;;;8.80;7.47;;;;;;;;;;4966688;28;20039;-65
2021/04/02 07:18:41;;;;;;;9.23;7.03;;;;;;;;;;4956063;28;20078;-65
2021/04/02 07:21:06;;;;;;;9.48;7.70;;;;;;;;;;4939727;28;20727;-65
2021/04/02 07:23:32;;;;;;;9.68;8.18;;;;;;;;;;4970232;28;20042;-66
2021/04/02 07:25:57;;;;;;;9.57;8.25;;;;;;;;;;4953813;28;20043;-65
2021/04/02 07:28:23;;;;;;;9.68;7.72;;;;;;;;;;4952334;28;20253;-65
2021/04/02 07:30:49;;;;;;;8.85;7.40;;;;;;;;;;4953279;28;20147;-65
2021/04/02 07:33:14;;;;;;;8.40;7.50;;;;;;;;;;4953334;28;20049;-65
2021/04/02 07:35:40;;;;;;;9.70;7.57;;;;;;;;;;4939219;28;20045;-65
2021/04/02 07:38:10;;;;;;;8.80;7.53;;;;;;;;;;4940883;28;20091;-67
2021/04/02 07:40:36;;;;;;;9.50;7.97;;;;;;;;;;4936592;28;20123;-65
2021/04/02 07:43:05;;;;;;;9.52;8.15;;;;;;;;;;4959255;28;20043;-65
2021/04/02 07:45:32;;;;;;;10.30;7.93;;;;;;;;;;4953651;28;20039;-65
2021/04/02 07:48:10;;;;;;;9.55;8.43;;;;;;;;;;4953109;28;20047;-65
2021/04/02 07:50:46;;;;;;;9.38;7.57;;;;;;;;;;4954295;28;20031;-65
2021/04/02 07:53:14;;;;;;;10.75;9.20;;;;;;;;;;4955413;28;20043;-65
2021/04/02 07:55:46;;;;;;;11.45;9.80;;;;;;;;;;4967642;28;20998;-65
2021/04/02 07:58:20;;;;;;;11.43;10.18;;;;;;;;;;4942262;28;20122;-65
2021/04/02 08:00:46;;;;;;;11.00;9.20;;;;;;;;;;4951574;28;20090;-65
2021/04/02 08:03:16;;;;;;;11.90;9.82;;;;;;;;;;4938669;28;20660;-66
2021/04/02 08:05:58;;;;;;;10.45;8.73;;;;;;;;;;4935694;28;20038;-66
2021/04/02 08:08:24;;;;;;;10.80;9.27;;;;;;;;;;4967011;28;20110;-66
2021/04/02 08:11:14;;;;;;;10.73;9.20;;;;;;;;;;4936505;28;20035;-66
2021/04/02 08:13:55;;;;;;;11.38;9.32;;;;;;;;;;4969135;28;20038;-65
2021/04/02 08:16:50;;;;;;;11.27;10.07;;;;;;;;;;4970634;28;20999;-65
2021/04/02 08:19:19;;;;;;;11.93;10.63;;;;;;;;;;4968442;28;20054;-65
2021/04/02 08:21:56;;;;;;;10.60;9.50;;;;;;;;;;4953280;28;20042;-65
2021/04/02 08:24:24;;;;;;;14.20;12.70;;;;;;;;;;4969938;28;20039;-65
2021/04/02 08:26:50;;;;;;;11.45;10.27;;;;;;;;;;4970298;28;20067;-64
2021/04/02 08:29:16;;;;;;;12.05;10.27;;;;;;;;;;4952083;28;20043;-65
2021/04/02 08:31:44;;;;;;;9.05;7.70;;;;;;;;;;4969171;28;20035;-65
2021/04/02 08:34:09;;;;;;;9.07;7.70;;;;;;;;;;4932672;28;20110;-64
2021/04/02 08:36:35;;;;;;;9.95;8.48;;;;;;;;;;4936483;28;20055;-65
2021/04/02 08:39:00;;;;;;;10.02;8.93;;;;;;;;;;4935611;28;20030;-65
2021/04/02 08:41:29;;;;;;;10.32;8.98;;;;;;;;;;4953030;28;20032;-65
2021/04/02 08:43:55;;;;;;;10.75;9.63;;;;;;;;;;4967818;28;20039;-66
2021/04/02 08:46:39;;;;;;;11.00;9.57;;;;;;;;;;4952185;28;20039;-65
2021/04/02 08:49:05;;;;;;;10.98;9.65;;;;;;;;;;4953745;28;20105;-65
2021/04/02 08:51:30;;;;;;;11.20;10.00;;;;;;;;;;4967956;28;20042;-65
2021/04/02 08:53:56;;;;;;;12.75;10.50;;;;;;;;;;4953180;28;20045;-65
2021/04/02 08:56:22;;;;;;;13.38;10.85;;;;;;;;;;4971371;28;20438;-66
2021/04/02 08:58:47;;;;;;;13.65;11.55;;;;;;;;;;4968483;28;21751;-65
2021/04/02 09:01:13;;;;;;;13.20;11.75;;;;;;;;;;4969154;28;20039;-65
2021/04/02 09:03:39;;;;;;;12.90;11.48;;;;;;;;;;4951625;28;20098;-65
2021/04/02 09:06:05;;;;;;;13.65;12.10;;;;;;;;;;4965250;28;20030;-66
2021/04/02 09:08:35;;;;;;;13.77;12.30;;;;;;;;;;4935764;28;20067;-65
2021/04/02 09:11:01;;;;;;;13.73;11.85;;;;;;;;;;4952734;28;20642;-65
2021/04/02 09:13:42;;;;;;;14.13;12.52;;;;;;;;;;4936972;28;20137;-66
2021/04/02 09:16:09;;;;;;;14.50;12.98;;;;;;;;;;4954941;28;20047;-66
2021/04/02 09:18:58;;;;;;;18.75;13.52;;;;;;;;;;4969283;28;20035;-67
2021/04/02 09:21:24;;;;;;;15.25;13.25;;;;;;;;;;4955124;28;20110;-65
2021/04/02 09:23:50;;;;;;;15.10;13.07;;;;;;;;;;4951053;28;20090;-65
2021/04/02 09:26:15;;;;;;;14.60;13.10;;;;;;;;;;4967190;28;20111;-59
2021/04/02 09:28:41;;;;;;;14.70;12.10;;;;;;;;;;4950179;28;20042;-59
2021/04/02 09:31:20;;;;;;;14.38;12.07;;;;;;;;;;4966884;28;20039;-60
2021/04/02 09:33:51;;;;;;;13.82;12.05;;;;;;;;;;4966809;28;20040;-60
2021/04/02 09:36:17;;;;;;;13.82;12.10;;;;;;;;;;4950474;28;20050;-60
2021/04/02 09:38:42;;;;;;;15.52;12.00;;;;;;;;;;4952559;28;20043;-66
2021/04/02 09:41:09;;;;;;;13.68;11.98;;;;;;;;;;4925367;28;20047;-66
2021/04/02 09:43:45;;;;;;;13.48;12.07;;;;;;;;;;4966768;28;20087;-65
2021/04/02 09:46:15;;;;;;;13.82;11.60;;;;;;;;;;4953132;28;20042;-64
2021/04/02 09:48:41;;;;;;;13.38;11.75;;;;;;;;;;4939499;28;20038;-65
2021/04/02 09:51:06;;;;;;;12.75;11.38;;;;;;;;;;4972087;28;20627;-63
2021/04/02 09:53:32;;;;;;;4.32;2.92;;;;;;;;;;4954722;28;20488;-60
2021/04/02 09:55:58;;;;;;;6.32;3.00;;;;;;;;;;4953536;28;20130;-60
2021/04/02 09:58:23;;;;;;;4.03;2.42;;;;;;;;;;4956450;28;20035;-61
2021/04/02 10:00:49;;;;;;;4.32;2.97;;;;;;;;;;4957478;28;20031;-61
2021/04/02 10:03:15;;;;;;;4.68;3.25;;;;;;;;;;4969696;28;20918;-61
2021/04/02 10:05:40;;;;;;;4.90;2.70;;;;;;;;;;4972627;28;20039;-62
2021/04/02 10:08:06;;;;;;;4.05;2.42;;;;;;;;;;4954557;28;20036;-61
2021/04/02 10:10:32;;;;;;;4.80;2.70;;;;;;;;;;4972843;28;20338;-61
2021/04/02 10:12:57;;;;;;;5.35;2.80;;;;;;;;;;4952411;28;20055;-62
2021/04/02 10:15:23;;;;;;;4.20;2.60;;;;;;;;;;4972658;28;20051;-62
2021/04/02 10:17:48;;;;;;;4.93;2.40;;;;;;;;;;4958785;28;20414;-63
2021/04/02 10:20:14;;;;;;;3.88;2.25;;;;;;;;;;4950109;28;20039;-62
2021/04/02 10:22:39;;;;;;;4.63;2.30;;;;;;;;;;4970617;28;20071;-62
2021/04/02 10:25:06;;;;;;;3.90;2.60;;;;;;;;;;4972621;28;20562;-62
2021/04/02 10:27:31;;;;;;;4.38;2.55;;;;;;;;;;4972214;28;20812;-62
2021/04/02 10:29:57;;;;;;;4.82;2.50;;;;;;;;;;4955257;28;20043;-62
2021/04/02 10:32:22;;;;;;;4.18;2.33;;;;;;;;;;4970736;28;20066;-63
2021/04/02 10:34:48;;;;;;;3.67;1.90;;;;;;;;;;4954594;28;20087;-63
2021/04/02 10:37:13;;;;;;;3.03;1.95;;;;;;;;;;4972483;28;20517;-62
2021/04/02 10:39:39;;;;;;;3.88;2.20;;;;;;;;;;4954946;28;20043;-63
2021/04/02 10:42:04;;;;;;;4.10;2.40;;;;;;;;;;4954475;28;20035;-62
2021/04/02 10:44:30;;;;;;;4.45;2.25;;;;;;;;;;4969109;28;20681;-62
2021/04/02 10:46:55;;;;;;;3.40;1.90;;;;;;;;;;4969818;28;20502;-62
2021/04/02 10:49:21;;;;;;;4.85;2.40;;;;;;;;;;4969793;28;20038;-62
2021/04/02 10:51:46;;;;;;;4.50;1.95;;;;;;;;;;4971414;28;20375;-62
2021/04/02 10:54:12;;;;;;;3.78;1.60;;;;;;;;;;4969803;28;20085;-62
2021/04/02 10:56:37;;;;;;;4.22;1.60;;;;;;;;;;4969023;28;20035;-63
2021/04/02 10:59:03;;;;;;;2.55;1.50;;;;;;;;;;4972876;28;20161;-62
2021/04/02 11:01:28;;;;;;;2.80;1.40;;;;;;;;;;4928182;28;20039;-62
2021/04/02 11:03:54;;;;;;;2.22;1.40;;;;;;;;;;4953682;28;20048;-62
2021/04/02 11:06:19;;;;;;;3.63;1.60;;;;;;;;;;4968718;28;20041;-61
2021/04/02 11:08:45;;;;;;;2.90;1.30;;;;;;;;;;4970644;28;20490;-62
2021/04/02 11:11:10;;;;;;;2.67;1.45;;;;;;;;;;4966678;28;20044;-62
2021/04/02 11:13:36;;;;;;;2.15;1.30;;;;;;;;;;4972079;28;20049;-61
2021/04/02 11:16:02;;;;;;;2.67;1.30;;;;;;;;;;4972069;28;20103;-62
2021/04/02 11:18:27;;;;;;;3.83;1.67;;;;;;;;;;4955375;28;20047;-61
2021/04/02 11:20:53;;;;;;;1.35;1.15;;;;;;;;;;4953683;28;20039;-62
2021/04/02 11:23:18;;;;;;;2.38;1.25;;;;;;;;;;4970824;28;20039;-62
2021/04/02 11:25:45;;;;;;;2.63;1.73;;;;;;;;;;4953136;28;20040;-62
2021/04/02 11:28:11;;;;;;;2.05;1.40;;;;;;;;;;4969781;28;20027;-62
2021/04/02 11:30:36;;;;;;;1.90;1.50;;;;;;;;;;4954890;28;20841;-62
2021/04/02 11:33:02;;;;;;;3.22;1.70;;;;;;;;;;4952184;28;20043;-62
2021/04/02 11:35:27;;;;;;;3.28;2.00;;;;;;;;;;4968739;28;20047;-63
2021/04/02 11:37:52;;;;;;;3.25;2.05;;;;;;;;;;4971277;28;20031;-63
2021/04/02 11:40:18;;;;;;;3.90;1.80;;;;;;;;;;4969461;28;20502;-62
2021/04/02 11:42:44;;;;;;;2.83;1.70;;;;;;;;;;4971257;28;20086;-63
2021/04/02 11:45:10;;;;;;;3.53;1.73;;;;;;;;;;4970700;28;20045;-62
2021/04/02 11:47:35;;;;;;;3.40;1.52;;;;;;;;;;4967482;28;20035;-62
2021/04/02 11:50:01;;;;;;;2.25;1.38;;;;;;;;;;4951659;28;20486;-63
2021/04/02 11:52:26;;;;;;;3.40;1.75;;;;;;;;;;4968657;28;20043;-63
2021/04/02 11:54:52;;;;;;;2.78;1.20;;;;;;;;;;4967645;28;20039;-62
2021/04/02 11:57:17;;;;;;;2.35;1.10;;;;;;;;;;4970057;28;20027;-62
2021/04/02 11:59:43;;;;;;;2.25;1.15;;;;;;;;;;4970197;28;20057;-62
2021/04/02 12:02:08;;;;;;;1.77;0.80;;;;;;;;;;4971942;28;20042;-62
2021/04/02 12:04:34;;;;;;;3.10;1.10;;;;;;;;;;4973072;28;20031;-62
2021/04/02 12:06:59;;;;;;;1.75;1.10;;;;;;;;;;4956947;28;20053;-62
2021/04/02 12:09:25;;;;;;;3.78;1.10;;;;;;;;;;4951646;28;20027;-62
2021/04/02 12:11:50;;;;;;;1.55;0.98;;;;;;;;;;4969115;28;20034;-62
2021/04/02 12:14:16;;;;;;;2.45;1.08;;;;;;;;;;4971078;28;20050;-63
2021/04/02 12:16:41;;;;;;;3.65;1.00;;;;;;;;;;4969327;28;20083;-62
2021/04/02 12:19:07;;;;;;;3.22;1.00;;;;;;;;;;4969019;28;20036;-63
2021/04/02 12:21:33;;;;;;;1.58;0.80;;;;;;;;;;4956191;28;20045;-63
2021/04/02 12:23:59;;;;;;;4.40;1.23;;;;;;;;;;4944005;28;20043;-62
2021/04/02 12:26:25;;;;;;;2.42;1.00;;;;;;;;;;4951778;28;20042;-63
2021/04/02 12:28:51;;;;;;;2.35;1.08;;;;;;;;;;4942879;28;20122;-62
2021/04/02 12:31:18;;;;;;;2.97;1.13;;;;;;;;;;4952840;28;20355;-63
2021/04/02 12:33:44;;;;;;;2.03;0.88;;;;;;;;;;4957920;28;20054;-63
2021/04/02 12:36:09;;;;;;;2.95;0.90;;;;;;;;;;4954327;28;20547;-63
2021/04/02 12:38:35;;;;;;;3.17;1.20;;;;;;;;;;4953332;28;20040;-63
2021/04/02 12:41:01;;;;;;;4.45;0.95;;;;;;;;;;4967990;28;20043;-63
2021/04/02 12:43:26;;;;;;;1.90;0.80;;;;;;;;;;4967747;28;20138;-63
2021/04/02 12:45:52;;;;;;;2.33;0.90;;;;;;;;;;4971667;28;20031;-62
2021/04/02 12:48:20;;;;;;;3.65;0.77;;;;;;;;;;4967688;28;20024;-63
2021/04/02 12:50:46;;;;;;;2.45;0.95;;;;;;;;;;4971314;28;20031;-64
2021/04/02 12:53:11;;;;;;;1.98;1.00;;;;;;;;;;4951627;28;20418;-63
2021/04/02 12:55:39;;;;;;;2.83;1.00;;;;;;;;;;4958631;28;20542;-63
2021/04/02 12:58:05;;;;;;;4.00;1.27;;;;;;;;;;4968534;28;20039;-63
2021/04/02 13:00:30;;;;;;;3.10;0.90;;;;;;;;;;4970922;28;20035;-64
2021/04/02 13:02:56;;;;;;;2.92;0.90;;;;;;;;;;4954170;28;20035;-63
2021/04/02 13:05:21;;;;;;;2.78;1.00;;;;;;;;;;4969317;28;20049;-63
2021/04/02 13:07:47;;;;;;;1.95;0.75;;;;;;;;;;4969019;28;20043;-63
2021/04/02 13:10:13;;;;;;;3.13;1.00;;;;;;;;;;4966796;28;20044;-63
2021/04/02 13:12:39;;;;;;;2.03;0.80;;;;;;;;;;4968587;28;20150;-63
2021/04/02 13:15:06;;;;;;;1.63;0.90;;;;;;;;;;4968487;28;20082;-63
2021/04/02 13:17:31;;;;;;;1.63;0.80;;;;;;;;;;4966224;28;20039;-63
2021/04/02 13:19:57;;;;;;;2.97;0.93;;;;;;;;;;4952652;28;20086;-64
2021/04/02 13:22:22;;;;;;;2.60;0.90;;;;;;;;;;4954630;28;20495;-64
2021/04/02 13:24:48;;;;;;;3.20;0.90;;;;;;;;;;4953838;28;20058;-64
2021/04/02 13:27:13;;;;;;;2.33;0.90;;;;;;;;;;4953801;28;20417;-64
2021/04/02 13:29:39;;;;;;;2.60;1.10;;;;;;;;;;4960885;28;20051;-64
2021/04/02 13:32:05;;;;;;;2.85;0.90;;;;;;;;;;4971209;28;20089;-63
2021/04/02 13:34:30;;;;;;;2.35;0.90;;;;;;;;;;4956644;28;20031;-64
2021/04/02 13:36:55;;;;;;;3.45;1.10;;;;;;;;;;4969533;28;20062;-63
2021/04/02 13:39:21;;;;;;;2.38;0.90;;;;;;;;;;4973371;28;20127;-63
2021/04/02 13:41:47;;;;;;;2.67;0.90;;;;;;;;;;4971495;28;20039;-63
2021/04/02 13:44:12;;;;;;;3.50;1.08;;;;;;;;;;4954572;28;20023;-63
2021/04/02 13:46:37;;;;;;;1.35;0.80;;;;;;;;;;4969595;28;20039;-62
2021/04/02 13:49:03;;;;;;;3.42;0.90;;;;;;;;;;4973384;28;20031;-64
2021/04/02 13:51:29;;;;;;;3.42;1.20;;;;;;;;;;4970382;28;20661;-63
2021/04/02 13:53:54;;;;;;;3.45;0.80;;;;;;;;;;4972334;28;20098;-63
2021/04/02 13:56:20;;;;;;;2.03;1.00;;;;;;;;;;4971269;28;20522;-63
2021/04/02 13:58:45;;;;;;;3.20;1.20;;;;;;;;;;4942639;28;20036;-63
2021/04/02 14:01:11;;;;;;;3.10;1.25;;;;;;;;;;4973209;28;20035;-63
2021/04/02 14:03:36;;;;;;;3.03;1.00;;;;;;;;;;4958097;28;20034;-63
2021/04/02 14:06:02;;;;;;;2.38;1.00;;;;;;;;;;4969185;28;20031;-63
2021/04/02 14:08:28;;;;;;;2.38;1.10;;;;;;;;;;4954651;28;20027;-63
2021/04/02 14:10:53;;;;;;;2.42;1.00;;;;;;;;;;4973973;28;20517;-64
2021/04/02 14:13:19;;;;;;;2.17;1.20;;;;;;;;;;4958970;28;20067;-63
2021/04/02 14:15:44;;;;;;;2.28;1.27;;;;;;;;;;4953941;28;20040;-63
2021/04/02 14:18:10;;;;;;;4.13;1.40;;;;;;;;;;4970589;28;20031;-64
2021/04/02 14:20:43;;;;;;;3.65;1.23;;;;;;;;;;4970556;28;20082;-64
2021/04/02 14:23:09;;;;;;;3.83;1.13;;;;;;;;;;4954890;28;20911;-64
2021/04/02 14:25:34;;;;;;;2.80;1.00;;;;;;;;;;4968445;28;20039;-64
2021/04/02 14:28:00;;;;;;;2.53;1.00;;;;;;;;;;4952813;28;20087;-63
2021/04/02 14:30:34;;;;;;;2.72;1.15;;;;;;;;;;4937213;28;20031;-63
2021/04/02 14:33:00;;;;;;;3.50;1.08;;;;;;;;;;4974746;28;20777;-63